sensor_id;sensor_type;location;lat;lon;timestamp;pressure;altitude;pressure_sealevel;temperature;humidity
69245;BME280;56357;52.304;4.870;2022-08-21T00:02:21;101886.31;;;21.83;55.95
69245;BME280;56357;52.304;4.870;2022-08-21T00:04:49;101889.41;;;21.87;55.97
69245;BME280;56357;52.304;4.870;2022-08-21T00:07:17;101888.56;;;21.87;56.11
69245;BME280;56357;52.304;4.870;2022-08-21T00:09:44;101895.63;;;21.89;56.01
69245;BME280;56357;52.304;4.870;2022-08-21T00:12:11;101886.88;;;21.86;55.94
69245;BME280;56357;52.304;4.870;2022-08-21T00:14:37;101884.63;;;21.88;56.02
69245;BME280;56357;52.304;4.870;2022-08-21T00:17:04;101884.06;;;21.86;55.94
69245;BME280;56357;52.304;4.870;2022-08-21T00:19:32;101880.63;;;21.78;56.15
69245;BME280;56357;52.304;4.870;2022-08-21T00:21:59;101879.50;;;21.79;55.88
69245;BME280;56357;52.304;4.870;2022-08-21T00:24:26;101884.56;;;21.77;56.20
69245;BME280;56357;52.304;4.870;2022-08-21T00:26:52;101880.91;;;21.77;56.37
69245;BME280;56357;52.304;4.870;2022-08-21T00:29:19;101879.25;;;21.81;56.37
69245;BME280;56357;52.304;4.870;2022-08-21T00:31:45;101872.44;;;21.72;56.30
69245;BME280;56357;52.304;4.870;2022-08-21T00:34:13;101875.84;;;21.74;56.43
69245;BME280;56357;52.304;4.870;2022-08-21T00:36:40;101871.31;;;21.68;56.45
69245;BME280;56357;52.304;4.870;2022-08-21T00:39:07;101862.84;;;21.68;56.60
69245;BME280;56357;52.304;4.870;2022-08-21T00:41:40;101874.69;;;21.70;56.68
69245;BME280;56357;52.304;4.870;2022-08-21T00:44:11;101871.88;;;21.65;56.79
69245;BME280;56357;52.304;4.870;2022-08-21T00:46:38;101875.00;;;21.68;56.66
69245;BME280;56357;52.304;4.870;2022-08-21T00:49:06;101871.59;;;21.66;56.76
69245;BME280;56357;52.304;4.870;2022-08-21T00:51:43;101884.00;;;21.65;56.81
69245;BME280;56357;52.304;4.870;2022-08-21T00:54:12;101872.72;;;21.60;56.91
69245;BME280;56357;52.304;4.870;2022-08-21T00:56:39;101881.47;;;21.59;57.02
69245;BME280;56357;52.304;4.870;2022-08-21T00:59:06;101873.56;;;21.61;57.13
69245;BME280;56357;52.304;4.870;2022-08-21T01:01:33;101881.19;;;21.60;57.03
69245;BME280;56357;52.304;4.870;2022-08-21T01:04:00;101876.94;;;21.58;57.15
69245;BME280;56357;52.304;4.870;2022-08-21T01:06:27;101875.53;;;21.60;57.28
69245;BME280;56357;52.304;4.870;2022-08-21T01:08:53;101868.19;;;21.54;57.28
69245;BME280;56357;52.304;4.870;2022-08-21T01:11:20;101876.94;;;21.53;57.48
69245;BME280;56357;52.304;4.870;2022-08-21T01:13:47;101874.09;;;21.48;57.64
69245;BME280;56357;52.304;4.870;2022-08-21T01:16:17;101869.88;;;21.45;57.80
69245;BME280;56357;52.304;4.870;2022-08-21T01:18:45;101873.25;;;21.52;57.71
69245;BME280;56357;52.304;4.870;2022-08-21T01:21:19;101871.59;;;21.56;57.88
69245;BME280;56357;52.304;4.870;2022-08-21T01:23:49;101874.94;;;21.43;57.74
69245;BME280;56357;52.304;4.870;2022-08-21T01:26:20;101873.50;;;21.46;58.00
69245;BME280;56357;52.304;4.870;2022-08-21T01:28:56;101882.28;;;21.49;57.84
69245;BME280;56357;52.304;4.870;2022-08-21T01:31:26;101881.16;;;21.45;57.91
69245;BME280;56357;52.304;4.870;2022-08-21T01:33:54;101878.91;;;21.47;57.86
69245;BME280;56357;52.304;4.870;2022-08-21T01:36:23;101876.63;;;21.39;58.08
69245;BME280;56357;52.304;4.870;2022-08-21T01:38:49;101874.94;;;21.43;57.95
69245;BME280;56357;52.304;4.870;2022-08-21T01:41:16;101872.94;;;21.39;58.26
69245;BME280;56357;52.304;4.870;2022-08-21T01:43:44;101873.81;;;21.39;58.30
69245;BME280;56357;52.304;4.870;2022-08-21T01:46:12;101861.97;;;21.37;58.51
69245;BME280;56357;52.304;4.870;2022-08-21T01:48:38;101865.34;;;21.39;58.23
69245;BME280;56357;52.304;4.870;2022-08-21T01:51:07;101865.88;;;21.36;58.63
69245;BME280;56357;52.304;4.870;2022-08-21T01:53:35;101867.31;;;21.39;58.55
69245;BME280;56357;52.304;4.870;2022-08-21T01:56:04;101861.97;;;21.37;58.57
69245;BME280;56357;52.304;4.870;2022-08-21T01:58:32;101865.06;;;21.36;58.51
69245;BME280;56357;52.304;4.870;2022-08-21T02:01:00;101864.22;;;21.35;58.75
69245;BME280;56357;52.304;4.870;2022-08-21T02:03:28;101863.34;;;21.35;58.70
69245;BME280;56357;52.304;4.870;2022-08-21T02:05:55;101866.47;;;21.33;58.90
69245;BME280;56357;52.304;4.870;2022-08-21T02:08:22;101858.81;;;21.29;58.85
69245;BME280;56357;52.304;4.870;2022-08-21T02:10:50;101857.69;;;21.25;58.90
69245;BME280;56357;52.304;4.870;2022-08-21T02:13:17;101846.41;;;21.25;58.80
69245;BME280;56357;52.304;4.870;2022-08-21T02:15:44;101836.56;;;21.22;59.00
69245;BME280;56357;52.304;4.870;2022-08-21T02:18:11;101836.56;;;21.22;59.29
69245;BME280;56357;52.304;4.870;2022-08-21T02:20:42;101836.28;;;21.19;59.23
69245;BME280;56357;52.304;4.870;2022-08-21T02:23:10;101837.69;;;21.21;59.17
69245;BME280;56357;52.304;4.870;2022-08-21T02:25:38;101842.22;;;21.22;59.21
69245;BME280;56357;52.304;4.870;2022-08-21T02:28:08;101839.94;;;21.19;59.31
69245;BME280;56357;52.304;4.870;2022-08-21T02:30:39;101842.50;;;21.21;59.28
69245;BME280;56357;52.304;4.870;2022-08-21T02:33:07;101840.50;;;21.16;59.36
69245;BME280;56357;52.304;4.870;2022-08-21T02:35:35;101846.13;;;21.11;59.36
69245;BME280;56357;52.304;4.870;2022-08-21T02:38:07;101842.75;;;21.14;59.68
69245;BME280;56357;52.304;4.870;2022-08-21T02:40:36;101843.84;;;21.08;59.71
69245;BME280;56357;52.304;4.870;2022-08-21T02:43:04;101841.03;;;21.08;59.42
69245;BME280;56357;52.304;4.870;2022-08-21T02:45:32;101835.69;;;21.07;59.51
69245;BME280;56357;52.304;4.870;2022-08-21T02:48:02;101841.84;;;21.04;59.59
69245;BME280;56357;52.304;4.870;2022-08-21T02:50:33;101837.88;;;21.00;59.56
69245;BME280;56357;52.304;4.870;2022-08-21T02:53:00;101839.59;;;21.01;59.64
69245;BME280;56357;52.304;4.870;2022-08-21T02:55:29;101831.94;;;20.96;59.78
69245;BME280;56357;52.304;4.870;2022-08-21T02:57:56;101836.19;;;20.98;59.84
69245;BME280;56357;52.304;4.870;2022-08-21T03:00:26;101837.56;;;20.96;59.83
69245;BME280;56357;52.304;4.870;2022-08-21T03:02:54;101831.66;;;20.92;59.92
69245;BME280;56357;52.304;4.870;2022-08-21T03:05:22;101827.72;;;20.93;59.90
69245;BME280;56357;52.304;4.870;2022-08-21T03:07:49;101828.84;;;20.92;59.87
69245;BME280;56357;52.304;4.870;2022-08-21T03:10:16;101823.47;;;20.91;59.87
69245;BME280;56357;52.304;4.870;2022-08-21T03:12:42;101820.09;;;20.89;59.89
69245;BME280;56357;52.304;4.870;2022-08-21T03:15:12;101817.56;;;20.87;59.99
69245;BME280;56357;52.304;4.870;2022-08-21T03:17:39;101810.78;;;20.83;60.05
69245;BME280;56357;52.304;4.870;2022-08-21T03:20:07;101809.66;;;20.84;60.12
69245;BME280;56357;52.304;4.870;2022-08-21T03:22:34;101808.81;;;20.84;59.96
69245;BME280;56357;52.304;4.870;2022-08-21T03:25:01;101803.72;;;20.81;60.14
69245;BME280;56357;52.304;4.870;2022-08-21T03:27:27;101801.47;;;20.78;60.20
69245;BME280;56357;52.304;4.870;2022-08-21T03:29:56;101804.28;;;20.78;60.17
69245;BME280;56357;52.304;4.870;2022-08-21T03:32:23;101806.25;;;20.77;60.20
69245;BME280;56357;52.304;4.870;2022-08-21T03:34:49;101805.09;;;20.73;59.78
69245;BME280;56357;52.304;4.870;2022-08-21T03:37:15;101804.53;;;20.71;60.28
69245;BME280;56357;52.304;4.870;2022-08-21T03:39:42;101799.19;;;20.70;60.16
69245;BME280;56357;52.304;4.870;2022-08-21T03:42:10;101803.16;;;20.69;60.22
69245;BME280;56357;52.304;4.870;2022-08-21T03:44:37;101798.34;;;20.69;59.93
69245;BME280;56357;52.304;4.870;2022-08-21T03:47:05;101802.00;;;20.65;60.29
69245;BME280;56357;52.304;4.870;2022-08-21T03:49:32;101804.25;;;20.68;60.20
69245;BME280;56357;52.304;4.870;2022-08-21T03:51:59;101798.59;;;20.63;60.52
69245;BME280;56357;52.304;4.870;2022-08-21T03:54:25;101797.47;;;20.59;60.48
69245;BME280;56357;52.304;4.870;2022-08-21T03:56:52;101794.38;;;20.60;60.59
69245;BME280;56357;52.304;4.870;2022-08-21T03:59:18;101790.41;;;20.61;60.49
69245;BME280;56357;52.304;4.870;2022-08-21T04:01:53;101796.31;;;20.60;60.63
69245;BME280;56357;52.304;4.870;2022-08-21T04:04:20;101796.59;;;20.58;60.46
69245;BME280;56357;52.304;4.870;2022-08-21T04:06:46;101799.69;;;20.57;60.85
69245;BME280;56357;52.304;4.870;2022-08-21T04:09:13;101785.59;;;20.52;60.65
69245;BME280;56357;52.304;4.870;2022-08-21T04:11:39;101801.66;;;20.56;60.64
69245;BME280;56357;52.304;4.870;2022-08-21T04:14:05;101804.72;;;20.50;60.96
69245;BME280;56357;52.304;4.870;2022-08-21T04:16:32;101807.28;;;20.51;60.98
69245;BME280;56357;52.304;4.870;2022-08-21T04:18:58;101807.84;;;20.53;60.74
69245;BME280;56357;52.304;4.870;2022-08-21T04:21:24;101809.22;;;20.46;61.02
69245;BME280;56357;52.304;4.870;2022-08-21T04:23:54;101808.38;;;20.45;60.78
69245;BME280;56357;52.304;4.870;2022-08-21T04:26:21;101808.06;;;20.42;61.06
69245;BME280;56357;52.304;4.870;2022-08-21T04:28:47;101807.81;;;20.48;61.02
69245;BME280;56357;52.304;4.870;2022-08-21T04:31:14;101809.19;;;20.41;61.12
69245;BME280;56357;52.304;4.870;2022-08-21T04:33:40;101801.88;;;20.45;61.13
69245;BME280;56357;52.304;4.870;2022-08-21T04:36:07;101813.13;;;20.45;61.06
69245;BME280;56357;52.304;4.870;2022-08-21T04:38:33;101811.94;;;20.31;61.39
69245;BME280;56357;52.304;4.870;2022-08-21T04:41:00;101817.63;;;20.41;61.21
69245;BME280;56357;52.304;4.870;2022-08-21T04:43:26;101820.47;;;20.46;61.13
69245;BME280;56357;52.304;4.870;2022-08-21T04:45:53;101818.50;;;20.46;61.01
69245;BME280;56357;52.304;4.870;2022-08-21T04:48:21;101819.31;;;20.42;61.13
69245;BME280;56357;52.304;4.870;2022-08-21T04:51:02;101821.88;;;20.43;60.87
69245;BME280;56357;52.304;4.870;2022-08-21T04:53:44;101824.97;;;20.47;61.14
69245;BME280;56357;52.304;4.870;2022-08-21T04:56:15;101832.84;;;20.50;61.07
69245;BME280;56357;52.304;4.870;2022-08-21T04:58:44;101830.84;;;20.40;61.32
69245;BME280;56357;52.304;4.870;2022-08-21T05:01:15;101832.53;;;20.41;61.44
69245;BME280;56357;52.304;4.870;2022-08-21T05:03:44;101831.41;;;20.42;61.48
69245;BME280;56357;52.304;4.870;2022-08-21T05:06:14;101827.50;;;20.48;61.01
69245;BME280;56357;52.304;4.870;2022-08-21T05:08:42;101832.84;;;20.50;61.21
69245;BME280;56357;52.304;4.870;2022-08-21T05:11:09;101824.97;;;20.52;60.99
69245;BME280;56357;52.304;4.870;2022-08-21T05:13:36;101825.84;;;20.52;61.14
69245;BME280;56357;52.304;4.870;2022-08-21T05:16:03;101827.28;;;20.55;61.13
69245;BME280;56357;52.304;4.870;2022-08-21T05:18:29;101823.88;;;20.48;61.18
69245;BME280;56357;52.304;4.870;2022-08-21T05:20:55;101824.41;;;20.45;61.30
69245;BME280;56357;52.304;4.870;2022-08-21T05:23:22;101825.53;;;20.49;61.24
69245;BME280;56357;52.304;4.870;2022-08-21T05:25:48;101826.09;;;20.46;61.17
69245;BME280;56357;52.304;4.870;2022-08-21T05:28:15;101832.56;;;20.46;61.33
69245;BME280;56357;52.304;4.870;2022-08-21T05:30:42;101834.00;;;20.54;61.21
69245;BME280;56357;52.304;4.870;2022-08-21T05:33:08;101832.03;;;20.54;61.22
69245;BME280;56357;52.304;4.870;2022-08-21T05:35:35;101836.81;;;20.54;61.31
69245;BME280;56357;52.304;4.870;2022-08-21T05:38:03;101839.34;;;20.50;61.75
69245;BME280;56357;52.304;4.870;2022-08-21T05:40:30;101842.44;;;20.54;61.39
69245;BME280;56357;52.304;4.870;2022-08-21T05:42:57;101842.50;;;20.59;61.30
69245;BME280;56357;52.304;4.870;2022-08-21T05:45:27;101849.22;;;20.58;61.22
69245;BME280;56357;52.304;4.870;2022-08-21T05:47:54;101834.59;;;20.56;61.34
69245;BME280;56357;52.304;4.870;2022-08-21T05:50:20;101835.44;;;20.61;61.31
69245;BME280;56357;52.304;4.870;2022-08-21T05:52:48;101837.72;;;20.64;61.30
69245;BME280;56357;52.304;4.870;2022-08-21T05:55:14;101834.91;;;20.64;61.54
69245;BME280;56357;52.304;4.870;2022-08-21T05:57:41;101842.28;;;20.70;61.67
69245;BME280;56357;52.304;4.870;2022-08-21T06:00:08;101836.94;;;20.74;61.21
69245;BME280;56357;52.304;4.870;2022-08-21T06:02:37;101834.69;;;20.76;61.47
69245;BME280;56357;52.304;4.870;2022-08-21T06:05:04;101838.38;;;20.86;61.11
69245;BME280;56357;52.304;4.870;2022-08-21T06:07:30;101836.69;;;20.85;61.12
69245;BME280;56357;52.304;4.870;2022-08-21T06:09:57;101835.88;;;20.90;61.22
69245;BME280;56357;52.304;4.870;2022-08-21T06:12:23;101838.72;;;21.00;60.92
69245;BME280;56357;52.304;4.870;2022-08-21T06:14:50;101832.00;;;21.06;61.01
69245;BME280;56357;52.304;4.870;2022-08-21T06:17:17;101833.69;;;21.02;61.12
69245;BME280;56357;52.304;4.870;2022-08-21T06:19:44;101835.88;;;20.95;61.35
69245;BME280;56357;52.304;4.870;2022-08-21T06:22:10;101833.59;;;20.92;61.88
69245;BME280;56357;52.304;4.870;2022-08-21T06:24:37;101831.38;;;20.94;62.05
69245;BME280;56357;52.304;4.870;2022-08-21T06:27:07;101827.75;;;21.04;61.79
69245;BME280;56357;52.304;4.870;2022-08-21T06:29:34;101829.19;;;21.01;62.00
69245;BME280;56357;52.304;4.870;2022-08-21T06:32:02;101833.97;;;21.06;62.20
69245;BME280;56357;52.304;4.870;2022-08-21T06:34:29;101838.78;;;21.10;62.28
69245;BME280;56357;52.304;4.870;2022-08-21T06:36:55;101835.41;;;21.13;62.25
69245;BME280;56357;52.304;4.870;2022-08-21T06:39:22;101833.22;;;21.30;61.40
69245;BME280;56357;52.304;4.870;2022-08-21T06:41:48;101832.63;;;21.38;61.84
69245;BME280;56357;52.304;4.870;2022-08-21T06:44:16;101834.63;;;21.48;61.46
69245;BME280;56357;52.304;4.870;2022-08-21T06:46:43;101826.19;;;21.43;61.48
69245;BME280;56357;52.304;4.870;2022-08-21T06:49:09;101836.63;;;21.52;61.12
69245;BME280;56357;52.304;4.870;2022-08-21T06:51:35;101836.63;;;21.52;61.65
69245;BME280;56357;52.304;4.870;2022-08-21T06:54:02;101838.31;;;21.58;61.59
69245;BME280;56357;52.304;4.870;2022-08-21T06:56:28;101832.13;;;21.71;60.96
69245;BME280;56357;52.304;4.870;2022-08-21T06:58:54;101829.31;;;21.76;61.79
69245;BME280;56357;52.304;4.870;2022-08-21T07:01:23;101835.81;;;21.92;60.88
69245;BME280;56357;52.304;4.870;2022-08-21T07:03:50;101831.03;;;22.03;60.81
69245;BME280;56357;52.304;4.870;2022-08-21T07:06:17;101822.84;;;22.01;60.58
69245;BME280;56357;52.304;4.870;2022-08-21T07:08:43;101838.91;;;22.01;61.59
69245;BME280;56357;52.304;4.870;2022-08-21T07:11:18;101829.63;;;22.05;60.68
69245;BME280;56357;52.304;4.870;2022-08-21T07:13:45;101841.44;;;22.12;60.82
69245;BME280;56357;52.304;4.870;2022-08-21T07:16:12;101837.78;;;22.07;61.37
69245;BME280;56357;52.304;4.870;2022-08-21T07:18:39;101834.41;;;22.05;61.33
69245;BME280;56357;52.304;4.870;2022-08-21T07:21:06;101832.16;;;22.07;61.35
69245;BME280;56357;52.304;4.870;2022-08-21T07:23:37;101833.00;;;22.02;61.31
69245;BME280;56357;52.304;4.870;2022-08-21T07:26:04;101840.59;;;22.12;61.40
69245;BME280;56357;52.304;4.870;2022-08-21T07:28:32;101839.19;;;22.14;61.20
69245;BME280;56357;52.304;4.870;2022-08-21T07:31:03;101829.56;;;22.30;61.16
69245;BME280;56357;52.304;4.870;2022-08-21T07:33:32;101830.97;;;22.28;61.46
69245;BME280;56357;52.304;4.870;2022-08-21T07:36:00;101825.84;;;22.50;61.07
69245;BME280;56357;52.304;4.870;2022-08-21T07:38:26;101825.84;;;22.50;61.22
69245;BME280;56357;52.304;4.870;2022-08-21T07:40:54;101843.91;;;22.54;61.21
69245;BME280;56357;52.304;4.870;2022-08-21T07:43:21;101836.56;;;22.58;61.33
69245;BME280;56357;52.304;4.870;2022-08-21T07:45:48;101840.22;;;22.68;61.10
69245;BME280;56357;52.304;4.870;2022-08-21T07:48:15;101838.53;;;22.73;61.36
69245;BME280;56357;52.304;4.870;2022-08-21T07:50:42;101835.69;;;22.73;61.41
69245;BME280;56357;52.304;4.870;2022-08-21T07:53:09;101826.81;;;22.94;60.85
69245;BME280;56357;52.304;4.870;2022-08-21T07:55:35;101831.91;;;22.92;61.12
69245;BME280;56357;52.304;4.870;2022-08-21T07:58:02;101827.94;;;22.98;61.19
69245;BME280;56357;52.304;4.870;2022-08-21T08:00:29;101827.03;;;23.08;60.77
69245;BME280;56357;52.304;4.870;2022-08-21T08:02:56;101829.56;;;23.14;60.92
69245;BME280;56357;52.304;4.870;2022-08-21T08:05:26;101836.63;;;23.12;60.66
69245;BME280;56357;52.304;4.870;2022-08-21T08:07:53;101836.31;;;23.13;60.90
69245;BME280;56357;52.304;4.870;2022-08-21T08:10:21;101832.88;;;23.21;60.72
69245;BME280;56357;52.304;4.870;2022-08-21T08:12:48;101838.78;;;23.35;60.78
69245;BME280;56357;52.304;4.870;2022-08-21T08:15:18;101835.09;;;23.34;60.78
69245;BME280;56357;52.304;4.870;2022-08-21T08:17:45;101831.72;;;23.27;60.35
69245;BME280;56357;52.304;4.870;2022-08-21T08:20:12;101826.38;;;23.31;60.75
69245;BME280;56357;52.304;4.870;2022-08-21T08:22:39;101833.41;;;23.33;60.74
69245;BME280;56357;52.304;4.870;2022-08-21T08:25:07;101832.56;;;23.33;60.93
69245;BME280;56357;52.304;4.870;2022-08-21T08:27:34;101835.41;;;23.33;60.64
69245;BME280;56357;52.304;4.870;2022-08-21T08:30:01;101830.53;;;23.43;60.08
69245;BME280;56357;52.304;4.870;2022-08-21T08:32:27;101834.53;;;23.37;60.33
69245;BME280;56357;52.304;4.870;2022-08-21T08:34:53;101822.41;;;23.32;60.64
69245;BME280;56357;52.304;4.870;2022-08-21T08:37:20;101828.75;;;23.52;60.34
69245;BME280;56357;52.304;4.870;2022-08-21T08:39:47;101820.47;;;23.66;59.97
69245;BME280;56357;52.304;4.870;2022-08-21T08:42:17;101821.94;;;23.58;59.67
69245;BME280;56357;52.304;4.870;2022-08-21T08:44:46;101815.09;;;23.65;59.81
69245;BME280;56357;52.304;4.870;2022-08-21T08:47:16;101819.84;;;23.74;59.42
69245;BME280;56357;52.304;4.870;2022-08-21T08:49:56;101814.91;;;23.85;59.23
69245;BME280;56357;52.304;4.870;2022-08-21T08:52:40;101817.88;;;23.70;59.18
69245;BME280;56357;52.304;4.870;2022-08-21T08:55:14;101813.31;;;23.74;59.23
69245;BME280;56357;52.304;4.870;2022-08-21T08:57:46;101810.03;;;23.95;58.83
69245;BME280;56357;52.304;4.870;2022-08-21T09:00:16;101811.94;;;24.05;58.39
69245;BME280;56357;52.304;4.870;2022-08-21T09:02:45;101824.13;;;24.00;58.16
69245;BME280;56357;52.304;4.870;2022-08-21T09:05:27;101821.59;;;23.99;58.14
69245;BME280;56357;52.304;4.870;2022-08-21T09:13:28;101822.72;;;23.98;58.06
69245;BME280;56357;52.304;4.870;2022-08-21T09:16:09;101821.19;;;23.82;58.17
69245;BME280;56357;52.304;4.870;2022-08-21T09:19:11;101823.31;;;23.95;58.05
69245;BME280;56357;52.304;4.870;2022-08-21T09:27:34;101822.44;;;23.99;57.69
69245;BME280;56357;52.304;4.870;2022-08-21T09:30:01;101822.72;;;24.03;57.77
69245;BME280;56357;52.304;4.870;2022-08-21T09:32:29;101825.56;;;24.03;57.39
69245;BME280;56357;52.304;4.870;2022-08-21T09:37:52;101832.00;;;24.08;57.31
69245;BME280;56357;52.304;4.870;2022-08-21T09:40:40;101821.53;;;24.09;57.50
69245;BME280;56357;52.304;4.870;2022-08-21T09:45:37;101816.91;;;24.18;57.26
69245;BME280;56357;52.304;4.870;2022-08-21T09:48:10;101806.72;;;24.17;57.10
69245;BME280;56357;52.304;4.870;2022-08-21T09:50:37;101805.22;;;24.24;57.06
69245;BME280;56357;52.304;4.870;2022-08-21T09:53:04;101805.34;;;24.38;56.68
69245;BME280;56357;52.304;4.870;2022-08-21T09:55:46;101801.09;;;24.40;56.44
69245;BME280;56357;52.304;4.870;2022-08-21T09:58:35;101814.25;;;24.55;56.00
69245;BME280;56357;52.304;4.870;2022-08-21T10:01:04;101805.25;;;24.48;55.44
69245;BME280;56357;52.304;4.870;2022-08-21T10:03:31;101812.56;;;24.78;55.10
69245;BME280;56357;52.304;4.870;2022-08-21T10:06:00;101807.59;;;24.88;54.80
69245;BME280;56357;52.304;4.870;2022-08-21T10:08:28;101808.44;;;24.89;53.99
69245;BME280;56357;52.304;4.870;2022-08-21T10:10:57;101810.94;;;24.72;54.16
69245;BME280;56357;52.304;4.870;2022-08-21T10:22:02;101822.44;;;24.57;54.35
69245;BME280;56357;52.304;4.870;2022-08-21T10:29:53;101812.34;;;24.74;53.35
69245;BME280;56357;52.304;4.870;2022-08-21T10:40:25;101803.09;;;24.87;53.00
69245;BME280;56357;52.304;4.870;2022-08-21T10:48:32;101788.06;;;24.87;52.71
69245;BME280;56357;52.304;4.870;2022-08-21T10:51:15;101801.38;;;24.86;52.53
69245;BME280;56357;52.304;4.870;2022-08-21T10:56:34;101799.75;;;24.80;53.17
69245;BME280;56357;52.304;4.870;2022-08-21T10:59:07;101805.69;;;24.84;52.75
69245;BME280;56357;52.304;4.870;2022-08-21T11:01:57;101807.59;;;24.88;51.99
69245;BME280;56357;52.304;4.870;2022-08-21T11:04:47;101792.88;;;24.86;52.22
69245;BME280;56357;52.304;4.870;2022-08-21T11:07:18;101804.81;;;25.07;51.64
69245;BME280;56357;52.304;4.870;2022-08-21T11:09:47;101805.63;;;25.07;51.70
69245;BME280;56357;52.304;4.870;2022-08-21T11:18:20;101815.97;;;24.98;51.26
69245;BME280;56357;52.304;4.870;2022-08-21T11:24:15;101813.50;;;24.92;51.38
69245;BME280;56357;52.304;4.870;2022-08-21T11:27:05;101809.53;;;24.93;51.67
69245;BME280;56357;52.304;4.870;2022-08-21T11:29:36;101809.13;;;24.99;51.53
69245;BME280;56357;52.304;4.870;2022-08-21T11:32:20;101808.31;;;24.99;50.83
69245;BME280;56357;52.304;4.870;2022-08-21T11:35:03;101811.50;;;24.92;50.93
69245;BME280;56357;52.304;4.870;2022-08-21T11:40:44;101824.66;;;25.07;51.75
69245;BME280;56357;52.304;4.870;2022-08-21T11:43:39;101821.31;;;25.00;51.65
69245;BME280;56357;52.304;4.870;2022-08-21T11:49:16;101832.44;;;24.96;51.31
69245;BME280;56357;52.304;4.870;2022-08-21T11:51:54;101827.84;;;25.00;51.63
69245;BME280;56357;52.304;4.870;2022-08-21T11:54:30;101822.19;;;25.00;51.48
69245;BME280;56357;52.304;4.870;2022-08-21T11:57:16;101830.00;;;25.08;51.00
69245;BME280;56357;52.304;4.870;2022-08-21T12:02:36;101830.69;;;25.19;51.47
69245;BME280;56357;52.304;4.870;2022-08-21T12:05:07;101828.94;;;25.23;51.16
69245;BME280;56357;52.304;4.870;2022-08-21T12:07:43;101833.09;;;25.30;50.65
69245;BME280;56357;52.304;4.870;2022-08-21T12:10:16;101826.88;;;25.28;50.87
69245;BME280;56357;52.304;4.870;2022-08-21T12:12:46;101824.25;;;25.32;50.67
69245;BME280;56357;52.304;4.870;2022-08-21T12:18:02;101826.94;;;25.47;50.09
69245;BME280;56357;52.304;4.870;2022-08-21T12:23:16;101830.31;;;25.49;49.71
69245;BME280;56357;52.304;4.870;2022-08-21T12:25:59;101839.56;;;25.55;50.41
69245;BME280;56357;52.304;4.870;2022-08-21T12:28:26;101836.25;;;25.48;50.36
69245;BME280;56357;52.304;4.870;2022-08-21T12:30:53;101840.78;;;25.49;50.07
69245;BME280;56357;52.304;4.870;2022-08-21T12:33:32;101834.59;;;25.47;49.44
69245;BME280;56357;52.304;4.870;2022-08-21T12:36:06;101840.13;;;25.57;50.25
69245;BME280;56357;52.304;4.870;2022-08-21T12:38:45;101827.53;;;25.63;49.61
69245;BME280;56357;52.304;4.870;2022-08-21T12:41:24;101822.38;;;25.65;49.56
69245;BME280;56357;52.304;4.870;2022-08-21T12:43:57;101840.09;;;25.75;49.58
69245;BME280;56357;52.304;4.870;2022-08-21T12:46:36;101850.13;;;25.68;49.48
69245;BME280;56357;52.304;4.870;2022-08-21T12:49:16;101842.63;;;25.58;49.69
69245;BME280;56357;52.304;4.870;2022-08-21T12:54:26;101840.94;;;25.57;49.60
69245;BME280;56357;52.304;4.870;2022-08-21T12:57:01;101840.25;;;25.65;49.48
69245;BME280;56357;52.304;4.870;2022-08-21T12:59:29;101845.84;;;25.70;49.42
69245;BME280;56357;52.304;4.870;2022-08-21T13:01:58;101845.75;;;25.75;48.91
69245;BME280;56357;52.304;4.870;2022-08-21T13:04:35;101833.50;;;25.80;49.55
69245;BME280;56357;52.304;4.870;2022-08-21T13:07:08;101839.78;;;25.77;49.12
69245;BME280;56357;52.304;4.870;2022-08-21T13:09:46;101839.66;;;25.68;49.72
69245;BME280;56357;52.304;4.870;2022-08-21T13:12:15;101848.38;;;25.72;48.97
69245;BME280;56357;52.304;4.870;2022-08-21T13:14:44;101848.06;;;25.73;48.60
69245;BME280;56357;52.304;4.870;2022-08-21T13:17:16;101851.28;;;25.67;48.79
69245;BME280;56357;52.304;4.870;2022-08-21T13:22:21;101848.09;;;25.55;49.25
69245;BME280;56357;52.304;4.870;2022-08-21T13:24:48;101848.31;;;25.58;49.45
69245;BME280;56357;52.304;4.870;2022-08-21T13:27:27;101852.59;;;25.56;49.02
69245;BME280;56357;52.304;4.870;2022-08-21T13:32:30;101833.91;;;25.55;49.09
69245;BME280;56357;52.304;4.870;2022-08-21T13:35:07;101842.88;;;25.43;48.92
69245;BME280;56357;52.304;4.870;2022-08-21T13:37:35;101849.00;;;25.50;48.65
69245;BME280;56357;52.304;4.870;2022-08-21T13:40:07;101853.06;;;25.44;48.86
69245;BME280;56357;52.304;4.870;2022-08-21T13:42:33;101845.72;;;25.38;49.28
69245;BME280;56357;52.304;4.870;2022-08-21T13:45:00;101853.41;;;25.37;49.06
69245;BME280;56357;52.304;4.870;2022-08-21T13:47:26;101846.03;;;25.36;49.23
69245;BME280;56357;52.304;4.870;2022-08-21T13:49:53;101850.59;;;25.37;48.77
69245;BME280;56357;52.304;4.870;2022-08-21T13:52:22;101847.25;;;25.30;48.86
69245;BME280;56357;52.304;4.870;2022-08-21T13:55:11;101842.28;;;25.22;49.58
69245;BME280;56357;52.304;4.870;2022-08-21T13:57:39;101838.31;;;25.23;48.88
69245;BME280;56357;52.304;4.870;2022-08-21T14:00:29;101841.75;;;25.20;49.21
69245;BME280;56357;52.304;4.870;2022-08-21T14:03:03;101839.59;;;25.31;48.79
69245;BME280;56357;52.304;4.870;2022-08-21T14:05:33;101841.16;;;25.42;48.99
69245;BME280;56357;52.304;4.870;2022-08-21T14:08:19;101838.81;;;25.49;48.15
69245;BME280;56357;52.304;4.870;2022-08-21T14:10:51;101848.44;;;25.67;47.96
69245;BME280;56357;52.304;4.870;2022-08-21T14:15:58;101854.22;;;25.62;47.87
69245;BME280;56357;52.304;4.870;2022-08-21T14:18:25;101851.28;;;25.67;47.59
69245;BME280;56357;52.304;4.870;2022-08-21T14:21:03;101847.09;;;25.64;48.06
69245;BME280;56357;52.304;4.870;2022-08-21T14:23:30;101846.91;;;25.56;48.10
69245;BME280;56357;52.304;4.870;2022-08-21T14:26:00;101855.97;;;25.58;48.66